createdAt,value
2024-01-05T00:01:44.727Z,13.14
2024-01-05T00:04:11.328Z,13.67
2024-01-05T00:06:39.162Z,13.24
2024-01-05T00:09:06.180Z,14.10
2024-01-05T00:11:32.839Z,12.95
2024-01-05T00:13:59.396Z,13.57
2024-01-05T00:16:26.013Z,14.16
2024-01-05T00:18:52.779Z,14.22
2024-01-05T00:21:26.358Z,13.35
2024-01-05T00:23:53.652Z,13.77
2024-01-05T00:26:20.433Z,13.16
2024-01-05T00:28:47.553Z,13.53
2024-01-05T00:31:14.696Z,13.36
2024-01-05T00:33:41.614Z,12.90
2024-01-05T00:36:08.828Z,13.01
2024-01-05T00:38:35.483Z,13.53
2024-01-05T00:41:02.004Z,13.67
2024-01-05T00:43:28.681Z,13.64
2024-01-05T00:45:55.480Z,13.42
2024-01-05T00:48:25.235Z,13.57
2024-01-05T00:50:51.999Z,13.84
2024-01-05T00:53:18.518Z,13.70
2024-01-05T00:55:45.107Z,13.93
2024-01-05T00:58:11.597Z,13.57
2024-01-05T01:00:38.287Z,13.96
2024-01-05T01:03:05.273Z,13.79
2024-01-05T01:05:31.884Z,13.74
2024-01-05T01:07:58.483Z,14.22
2024-01-05T01:10:25.166Z,13.67
2024-01-05T01:12:51.797Z,14.24
2024-01-05T01:15:18.375Z,14.08
2024-01-05T01:17:45.355Z,13.93
2024-01-05T01:20:11.969Z,13.32
2024-01-05T01:22:38.541Z,13.99
2024-01-05T01:25:05.423Z,14.18
2024-01-05T01:27:32.088Z,14.23
2024-01-05T01:29:58.864Z,14.50
2024-01-05T01:32:25.529Z,14.27
2024-01-05T01:34:52.080Z,14.33
2024-01-05T01:37:18.719Z,14.60
2024-01-05T01:39:45.347Z,13.93
2024-01-05T01:42:12.244Z,14.54
2024-01-05T01:44:38.892Z,14.56
2024-01-05T01:47:05.538Z,14.68
2024-01-05T01:49:32.205Z,14.63
2024-01-05T01:51:58.921Z,15.06
2024-01-05T01:54:25.672Z,14.66
2024-01-05T01:56:52.348Z,14.56
2024-01-05T01:59:19.021Z,13.91
2024-01-05T02:01:45.688Z,14.70
2024-01-05T02:04:15.568Z,13.46
2024-01-05T02:06:46.110Z,14.75
2024-01-05T02:09:13.405Z,14.52
2024-01-05T02:11:43.046Z,14.96
2024-01-05T02:14:10.005Z,14.71
2024-01-05T02:16:36.512Z,14.74
2024-01-05T02:19:03.250Z,14.28
2024-01-05T02:21:34.646Z,14.92
2024-01-05T02:24:01.438Z,15.16
2024-01-05T02:26:28.131Z,14.38
2024-01-05T02:28:54.692Z,14.37
2024-01-05T02:31:21.428Z,14.59
2024-01-05T02:33:48.122Z,14.52
2024-01-05T02:36:15.111Z,14.84
2024-01-05T02:38:41.641Z,14.07
2024-01-05T02:41:09.279Z,14.00
2024-01-05T02:43:35.811Z,14.44
2024-01-05T02:46:02.361Z,14.99
2024-01-05T02:48:29.091Z,14.28
2024-01-05T02:50:55.797Z,14.32
2024-01-05T02:53:24.390Z,13.60
2024-01-05T02:55:51.003Z,14.43
2024-01-05T02:58:17.518Z,14.60
2024-01-05T03:00:44.224Z,14.07
2024-01-05T03:03:10.944Z,14.38
2024-01-05T03:05:37.629Z,14.24
2024-01-05T03:08:04.494Z,14.53
2024-01-05T03:10:31.144Z,14.54
2024-01-05T03:12:57.663Z,13.97
2024-01-05T03:15:24.343Z,14.07
2024-01-05T03:17:52.251Z,14.08
2024-01-05T03:20:19.220Z,14.40
2024-01-05T03:22:45.779Z,14.69
2024-01-05T03:25:12.321Z,14.43
2024-01-05T03:27:38.950Z,14.16
2024-01-05T03:30:05.984Z,14.04
2024-01-05T03:32:32.787Z,13.69
2024-01-05T03:34:59.577Z,14.57
2024-01-05T03:37:26.090Z,14.21
2024-01-05T03:39:52.668Z,14.62
2024-01-05T03:42:19.525Z,13.73
2024-01-05T03:44:46.209Z,14.03
2024-01-05T03:47:12.794Z,13.64
2024-01-05T03:49:39.443Z,13.69
2024-01-05T03:52:06.170Z,14.11
2024-01-05T03:54:32.860Z,13.55
2024-01-05T03:56:59.489Z,13.58
2024-01-05T03:59:26.103Z,13.69
2024-01-05T04:01:52.710Z,13.21
2024-01-05T04:04:19.490Z,13.73
2024-01-05T04:06:46.982Z,13.89
2024-01-05T04:09:13.971Z,13.68
2024-01-05T04:11:40.659Z,13.27
2024-01-05T04:14:07.483Z,13.23
2024-01-05T04:16:34.243Z,13.73
2024-01-05T04:19:01.135Z,13.85
2024-01-05T04:21:27.890Z,13.17
2024-01-05T04:23:55.612Z,13.06
2024-01-05T04:26:22.174Z,13.23
2024-01-05T04:28:48.840Z,13.18
2024-01-05T04:31:15.606Z,13.70
2024-01-05T04:33:42.490Z,12.56
2024-01-05T04:36:09.128Z,13.04
2024-01-05T04:38:35.942Z,13.14
2024-01-05T04:41:02.922Z,13.07
2024-01-05T04:43:29.484Z,13.93
2024-01-05T04:45:55.972Z,13.12
2024-01-05T04:48:22.835Z,13.63
2024-01-05T04:50:49.560Z,13.26
2024-01-05T04:53:16.121Z,14.03
2024-01-05T04:55:42.670Z,13.76
2024-01-05T04:58:09.406Z,13.27
2024-01-05T05:00:36.168Z,13.89
2024-01-05T05:03:02.909Z,14.08
2024-01-05T05:05:29.711Z,13.28
2024-01-05T05:07:56.320Z,13.50
2024-01-05T05:10:26.079Z,12.85
2024-01-05T05:12:52.590Z,13.51
2024-01-05T05:15:19.374Z,13.00
2024-01-05T05:17:46.105Z,13.48
2024-01-05T05:20:12.837Z,13.85
2024-01-05T05:22:39.344Z,14.28
2024-01-05T05:25:07.755Z,13.63
2024-01-05T05:27:34.891Z,14.15
2024-01-05T05:30:05.539Z,14.34
2024-01-05T05:32:33.398Z,13.82
2024-01-05T05:34:59.952Z,13.83
2024-01-05T05:37:26.738Z,14.67
2024-01-05T05:39:53.543Z,14.25
2024-01-05T05:42:20.203Z,14.37
2024-01-05T05:44:46.758Z,14.46
2024-01-05T05:47:13.337Z,14.71
2024-01-05T05:49:39.997Z,14.72
2024-01-05T05:52:07.110Z,13.46
2024-01-05T05:54:33.799Z,13.99
2024-01-05T05:57:00.441Z,14.28
2024-01-05T05:59:30.333Z,14.51
2024-01-05T06:01:56.857Z,14.90
2024-01-05T06:04:23.389Z,14.89
2024-01-05T06:06:50.015Z,15.06
2024-01-05T06:09:16.726Z,15.00
2024-01-05T06:11:43.565Z,14.32
2024-01-05T06:14:10.343Z,14.54
2024-01-05T06:16:36.999Z,15.11
2024-01-05T06:19:03.692Z,14.78
2024-01-05T06:21:30.438Z,15.07
2024-01-05T06:23:57.033Z,14.96
2024-01-05T06:26:23.648Z,14.87
2024-01-05T06:28:50.206Z,14.70
2024-01-05T06:31:16.868Z,14.79
2024-01-05T06:33:44.096Z,15.09
2024-01-05T06:36:10.852Z,14.22
2024-01-05T06:38:37.404Z,15.49
2024-01-05T06:41:03.974Z,15.26
2024-01-05T06:43:30.502Z,15.31
2024-01-05T06:45:57.004Z,15.37
2024-01-05T06:48:23.848Z,15.41
2024-01-05T06:50:50.536Z,14.69
2024-01-05T06:53:17.271Z,15.63
2024-01-05T06:55:43.779Z,14.71
2024-01-05T06:58:10.365Z,14.72
2024-01-05T07:00:39.357Z,15.16
2024-01-05T07:03:06.327Z,15.07
2024-01-05T07:05:33.123Z,15.19
2024-01-05T07:07:59.692Z,15.26
2024-01-05T07:10:28.598Z,15.68
2024-01-05T07:12:56.685Z,15.75
2024-01-05T07:15:23.594Z,14.45
2024-01-05T07:17:50.224Z,15.36
2024-01-05T07:20:16.990Z,14.64
2024-01-05T07:22:45.556Z,15.24
2024-01-05T07:25:12.254Z,15.18
2024-01-05T07:27:38.844Z,14.63
2024-01-05T07:30:06.441Z,15.01
2024-01-05T07:32:33.162Z,14.84
2024-01-05T07:34:59.879Z,14.69
2024-01-05T07:37:26.467Z,14.57
2024-01-05T07:39:53.259Z,14.39
2024-01-05T07:42:20.009Z,14.12
2024-01-05T07:44:46.517Z,14.56
2024-01-05T07:47:13.029Z,14.71
2024-01-05T07:49:41.394Z,14.12
2024-01-05T07:52:08.098Z,14.18
2024-01-05T07:54:34.718Z,13.94
2024-01-05T07:57:01.383Z,14.16
2024-01-05T07:59:30.990Z,14.30
2024-01-05T08:01:57.502Z,14.65
2024-01-05T08:04:24.235Z,15.19
2024-01-05T08:06:52.345Z,14.67
2024-01-05T08:09:19.083Z,14.74
2024-01-05T08:11:46.104Z,13.91
2024-01-05T08:14:13.167Z,13.98
2024-01-05T08:16:39.688Z,14.70
2024-01-05T08:19:06.374Z,14.62
2024-01-05T08:21:33.173Z,14.34
2024-01-05T08:23:59.828Z,14.21
2024-01-05T08:26:30.443Z,14.50
2024-01-05T08:28:57.231Z,14.77
2024-01-05T08:31:23.962Z,14.25
2024-01-05T08:33:50.696Z,15.27
2024-01-05T08:36:17.475Z,14.84
2024-01-05T08:38:44.782Z,13.61
2024-01-05T08:41:11.352Z,14.80
2024-01-05T08:43:40.045Z,15.08
2024-01-05T08:46:06.665Z,15.13
2024-01-05T08:48:33.279Z,14.93
2024-01-05T08:50:59.949Z,14.77
2024-01-05T08:53:26.579Z,15.32
2024-01-05T08:55:53.085Z,15.99
2024-01-05T08:58:19.662Z,15.39
2024-01-05T09:00:46.369Z,16.11
2024-01-05T09:03:13.175Z,15.56
2024-01-05T09:05:39.843Z,15.62
2024-01-05T09:08:06.600Z,16.32
2024-01-05T09:10:34.455Z,15.43
2024-01-05T09:13:01.666Z,15.41
2024-01-05T09:15:28.525Z,14.57
2024-01-05T09:17:55.320Z,15.70
2024-01-05T09:20:21.953Z,14.90
2024-01-05T09:22:48.521Z,15.30
2024-01-05T09:25:15.283Z,14.46
2024-01-05T09:27:42.034Z,14.91
2024-01-05T09:30:09.423Z,14.54
2024-01-05T09:32:36.230Z,15.01
2024-01-05T09:35:02.887Z,15.56
2024-01-05T09:37:32.345Z,15.84
2024-01-05T09:39:59.011Z,15.56
2024-01-05T09:42:27.822Z,15.80
2024-01-05T09:44:54.843Z,14.75
2024-01-05T09:47:21.491Z,14.38
2024-01-05T09:49:50.611Z,14.58
2024-01-05T09:52:17.410Z,15.16
2024-01-05T09:54:44.049Z,15.12
2024-01-05T09:57:11.074Z,15.23
2024-01-05T09:59:40.002Z,15.43
2024-01-05T10:02:06.832Z,15.70
2024-01-05T10:04:33.643Z,14.81
2024-01-05T10:07:01.627Z,14.84
2024-01-05T10:09:30.292Z,15.10
2024-01-05T10:11:57.633Z,15.66
2024-01-05T10:14:27.738Z,14.87
2024-01-05T10:17:14.858Z,15.16
2024-01-05T10:19:43.201Z,15.59
2024-01-05T10:22:13.072Z,15.49
2024-01-05T10:24:40.139Z,15.15
2024-01-05T10:27:10.752Z,15.26
2024-01-05T10:29:40.458Z,15.59
2024-01-05T10:32:17.566Z,15.45
2024-01-05T10:34:48.242Z,15.44
2024-01-05T10:37:15.707Z,15.48
2024-01-05T10:39:59.824Z,15.37
2024-01-05T10:42:27.037Z,15.41
2024-01-05T10:44:54.728Z,15.62
2024-01-05T10:47:28.037Z,14.80
2024-01-05T10:49:57.070Z,15.04
2024-01-05T10:52:25.559Z,15.53
2024-01-05T10:54:53.868Z,15.72
2024-01-05T10:57:21.745Z,15.15
2024-01-05T10:59:49.056Z,15.27
2024-01-05T11:02:22.943Z,16.02
2024-01-05T11:04:55.864Z,15.57
2024-01-05T11:07:23.077Z,15.29
2024-01-05T11:10:12.890Z,15.05
2024-01-05T11:12:44.415Z,15.08
2024-01-05T11:15:14.251Z,14.82
2024-01-05T11:17:59.608Z,15.35
2024-01-05T11:20:40.894Z,15.07
2024-01-05T11:23:09.651Z,14.66
2024-01-05T11:25:36.195Z,14.73
2024-01-05T11:28:03.390Z,15.23
2024-01-05T11:30:40.637Z,15.20
2024-01-05T11:33:08.442Z,15.07
2024-01-05T11:35:42.764Z,14.70
2024-01-05T11:38:29.614Z,14.35
2024-01-05T11:40:56.174Z,14.76
2024-01-05T11:43:34.710Z,14.27
2024-01-05T11:46:01.352Z,13.75
2024-01-05T11:48:38.624Z,14.47
2024-01-05T11:51:09.007Z,14.41
2024-01-05T11:53:35.758Z,14.61
2024-01-05T11:56:09.647Z,15.04
2024-01-05T11:58:45.260Z,14.48
2024-01-05T12:01:13.282Z,14.58
2024-01-05T12:03:40.464Z,14.21
2024-01-05T12:06:08.321Z,14.68
2024-01-05T12:08:35.079Z,14.94
2024-01-05T12:11:04.208Z,15.17
2024-01-05T12:13:32.028Z,15.27
2024-01-05T12:16:01.998Z,15.43
2024-01-05T12:18:37.517Z,15.16
2024-01-05T12:21:08.178Z,13.96
2024-01-05T12:23:35.722Z,14.82
2024-01-05T12:26:06.788Z,14.97
2024-01-05T12:28:40.027Z,14.44
2024-01-05T12:31:07.150Z,13.96
2024-01-05T12:33:36.297Z,15.08
2024-01-05T12:36:04.044Z,13.93
2024-01-05T12:38:32.570Z,14.75
2024-01-05T12:41:14.793Z,14.62
2024-01-05T12:43:51.588Z,14.79
2024-01-05T12:46:23.953Z,15.17
2024-01-05T12:48:51.942Z,14.95
2024-01-05T12:51:24.147Z,15.70
2024-01-05T12:54:02.859Z,14.35
2024-01-05T12:56:29.753Z,13.39
2024-01-05T12:58:56.328Z,14.34
2024-01-05T13:01:24.484Z,14.83
2024-01-05T13:03:53.449Z,13.93
2024-01-05T13:06:20.974Z,14.16
2024-01-05T13:08:47.780Z,14.07
2024-01-05T13:11:23.748Z,14.46
2024-01-05T13:13:50.596Z,14.31
2024-01-05T13:16:17.229Z,14.84
2024-01-05T13:18:44.122Z,14.61
2024-01-05T13:21:11.134Z,14.53
2024-01-05T13:23:38.874Z,14.23
2024-01-05T13:26:05.525Z,14.33
2024-01-05T13:28:36.656Z,13.89
2024-01-05T13:31:03.582Z,13.79
2024-01-05T13:33:30.601Z,14.15
2024-01-05T13:35:58.165Z,14.09
2024-01-05T13:38:24.754Z,14.21
2024-01-05T13:40:51.403Z,13.73
2024-01-05T13:43:17.981Z,14.64
2024-01-05T13:45:44.730Z,13.92
2024-01-05T13:48:11.525Z,14.42
2024-01-05T13:50:40.427Z,14.40
2024-01-05T13:53:12.282Z,14.55
2024-01-05T13:55:38.848Z,14.47
2024-01-05T13:58:05.518Z,14.39
2024-01-05T14:00:32.261Z,14.72
2024-01-05T14:02:58.890Z,14.25
2024-01-05T14:05:25.707Z,13.99
2024-01-05T14:07:52.514Z,14.32
2024-01-05T14:10:19.157Z,15.12
2024-01-05T14:12:45.733Z,15.62
2024-01-05T14:15:12.365Z,14.73
2024-01-05T14:17:39.330Z,14.61
2024-01-05T14:20:07.475Z,14.28
2024-01-05T14:22:34.159Z,15.46
2024-01-05T14:25:00.966Z,14.77
2024-01-05T14:27:27.746Z,14.28
2024-01-05T14:29:54.378Z,14.62
2024-01-05T14:32:21.047Z,14.89
2024-01-05T14:34:47.699Z,13.21
2024-01-05T14:37:14.409Z,13.72
2024-01-05T14:39:41.049Z,13.92
2024-01-05T14:42:07.700Z,14.28
2024-01-05T14:44:34.462Z,14.12
2024-01-05T14:47:01.127Z,13.02
2024-01-05T14:49:27.931Z,13.85
2024-01-05T14:51:56.978Z,14.31
2024-01-05T14:54:23.671Z,13.85
2024-01-05T14:56:50.358Z,14.09
2024-01-05T14:59:17.005Z,14.14
2024-01-05T15:01:43.634Z,13.78
2024-01-05T15:04:10.383Z,13.51
2024-01-05T15:06:37.482Z,14.42
2024-01-05T15:09:04.326Z,13.84
2024-01-05T15:11:33.025Z,14.45
2024-01-05T15:14:00.931Z,14.33
2024-01-05T15:16:28.228Z,14.43
2024-01-05T15:18:55.131Z,14.24
2024-01-05T15:21:25.999Z,14.06
2024-01-05T15:23:53.211Z,13.98
2024-01-05T15:26:19.786Z,13.71
2024-01-05T15:28:46.444Z,12.80
2024-01-05T15:31:19.774Z,13.23
2024-01-05T15:33:47.145Z,14.25
2024-01-05T15:36:18.484Z,13.90
2024-01-05T15:38:48.220Z,14.03
2024-01-05T15:41:14.801Z,14.30
2024-01-05T15:43:41.388Z,14.05
2024-01-05T15:46:09.978Z,13.92
2024-01-05T15:48:37.068Z,13.83
2024-01-05T15:51:03.901Z,13.23
2024-01-05T15:53:31.859Z,14.17
2024-01-05T15:55:59.464Z,14.30
2024-01-05T15:58:26.254Z,13.95
2024-01-05T16:00:55.994Z,14.04
2024-01-05T16:03:24.027Z,14.57
2024-01-05T16:05:51.005Z,14.22
2024-01-05T16:08:17.617Z,14.30
2024-01-05T16:10:44.170Z,14.53
2024-01-05T16:13:10.757Z,14.84
2024-01-05T16:15:37.466Z,13.71
2024-01-05T16:18:04.305Z,14.11
2024-01-05T16:20:31.042Z,14.03
2024-01-05T16:22:57.559Z,13.92
2024-01-05T16:25:24.152Z,14.69
2024-01-05T16:27:50.765Z,14.65
2024-01-05T16:30:17.926Z,14.61
2024-01-05T16:32:46.235Z,14.97
2024-01-05T16:35:12.827Z,14.44
2024-01-05T16:37:39.601Z,14.37
2024-01-05T16:40:07.129Z,14.54
2024-01-05T16:42:33.856Z,13.64
2024-01-05T16:45:00.638Z,14.13
2024-01-05T16:47:27.409Z,14.51
2024-01-05T16:49:54.181Z,14.83
2024-01-05T16:52:20.905Z,14.57
2024-01-05T16:54:47.532Z,14.49
2024-01-05T16:57:14.259Z,14.61
2024-01-05T16:59:42.441Z,14.63
2024-01-05T17:02:09.114Z,14.80
2024-01-05T17:04:35.912Z,14.78
2024-01-05T17:07:02.709Z,14.54
2024-01-05T17:09:29.489Z,13.79
2024-01-05T17:11:58.299Z,14.54
2024-01-05T17:14:25.105Z,14.69
2024-01-05T17:16:52.013Z,14.78
2024-01-05T17:19:19.519Z,14.85
2024-01-05T17:21:49.053Z,14.47
2024-01-05T17:24:15.975Z,14.58
2024-01-05T17:26:42.589Z,14.97
2024-01-05T17:29:09.145Z,14.45
2024-01-05T17:31:35.971Z,15.10
2024-01-05T17:34:02.838Z,15.12
2024-01-05T17:36:30.517Z,14.89
2024-01-05T17:38:57.622Z,14.76
2024-01-05T17:41:24.283Z,14.84
2024-01-05T17:43:51.042Z,14.74
2024-01-05T17:46:17.716Z,13.73
2024-01-05T17:48:44.516Z,14.31
2024-01-05T17:51:11.245Z,14.04
2024-01-05T17:53:38.342Z,14.00
2024-01-05T17:56:05.131Z,14.04
2024-01-05T17:58:31.793Z,13.99
2024-01-05T18:00:58.409Z,14.17
2024-01-05T18:03:26.744Z,14.14
2024-01-05T18:05:53.555Z,14.20
2024-01-05T18:08:20.154Z,14.12
2024-01-05T18:10:46.696Z,14.08
2024-01-05T18:13:13.255Z,13.50
2024-01-05T18:15:39.786Z,13.46
2024-01-05T18:18:08.498Z,13.58
2024-01-05T18:20:35.304Z,13.52
2024-01-05T18:23:02.041Z,14.13
2024-01-05T18:25:30.457Z,14.13
2024-01-05T18:28:00.045Z,13.92
2024-01-05T18:30:27.850Z,14.16
2024-01-05T18:32:54.605Z,14.01
2024-01-05T18:35:21.365Z,13.93
2024-01-05T18:37:47.912Z,13.94
2024-01-05T18:40:14.639Z,13.76
2024-01-05T18:42:41.222Z,13.31
2024-01-05T18:45:08.090Z,13.27
2024-01-05T18:47:34.749Z,13.61
2024-01-05T18:50:01.643Z,13.99
2024-01-05T18:52:28.317Z,13.72
2024-01-05T18:54:55.008Z,13.81
2024-01-05T18:57:21.620Z,13.94
2024-01-05T18:59:48.210Z,13.21
2024-01-05T19:02:14.865Z,13.13
2024-01-05T19:04:41.674Z,13.42
2024-01-05T19:07:08.384Z,13.58
2024-01-05T19:09:35.377Z,13.33
2024-01-05T19:12:02.085Z,13.58
2024-01-05T19:14:28.744Z,13.68
2024-01-05T19:16:55.434Z,13.76
2024-01-05T19:19:22.551Z,13.73
2024-01-05T19:21:56.222Z,13.93
2024-01-05T19:24:24.896Z,13.57
2024-01-05T19:26:53.916Z,13.62
2024-01-05T19:29:20.507Z,13.98
2024-01-05T19:31:47.288Z,13.96
2024-01-05T19:34:14.248Z,13.90
2024-01-05T19:36:47.413Z,13.59
2024-01-05T19:39:14.542Z,13.51
2024-01-05T19:41:51.296Z,13.85
2024-01-05T19:44:18.716Z,13.62
2024-01-05T19:46:45.749Z,13.78
2024-01-05T19:49:13.573Z,13.69
2024-01-05T19:51:48.861Z,13.27
2024-01-05T19:54:17.125Z,13.44
2024-01-05T19:56:44.180Z,13.43
2024-01-05T19:59:12.190Z,13.57
2024-01-05T20:01:41.112Z,12.81
2024-01-05T20:04:07.882Z,13.68
2024-01-05T20:06:36.229Z,13.50
2024-01-05T20:09:03.394Z,12.21
2024-01-05T20:11:30.513Z,13.56
2024-01-05T20:13:57.122Z,13.37
2024-01-05T20:16:24.614Z,13.45
2024-01-05T20:18:51.215Z,12.86
2024-01-05T20:21:19.021Z,13.58
2024-01-05T20:23:45.645Z,13.55
2024-01-05T20:26:17.455Z,13.69
2024-01-05T20:28:44.024Z,13.79
2024-01-05T20:31:10.723Z,13.84
2024-01-05T20:33:37.557Z,13.85
2024-01-05T20:36:04.540Z,13.84
2024-01-05T20:38:31.129Z,14.02
2024-01-05T20:40:57.963Z,13.84
2024-01-05T20:43:24.625Z,13.78
2024-01-05T20:45:51.288Z,13.80
2024-01-05T20:48:18.089Z,13.69
2024-01-05T20:50:44.756Z,12.99
2024-01-05T20:53:12.703Z,13.34
2024-01-05T20:55:39.579Z,12.94
2024-01-05T20:58:06.207Z,13.38
2024-01-05T21:00:33.041Z,13.12
2024-01-05T21:02:59.653Z,13.37
2024-01-05T21:05:26.502Z,12.69
2024-01-05T21:07:54.115Z,13.40
2024-01-05T21:10:20.705Z,13.23
2024-01-05T21:12:47.319Z,13.64
2024-01-05T21:15:14.091Z,13.42
2024-01-05T21:17:40.831Z,13.23
2024-01-05T21:20:07.812Z,13.49
2024-01-05T21:22:36.328Z,13.30
2024-01-05T21:25:05.201Z,13.58
2024-01-05T21:27:31.811Z,13.61
2024-01-05T21:29:58.917Z,13.76
2024-01-05T21:32:28.645Z,13.15
2024-01-05T21:34:56.484Z,13.71
2024-01-05T21:37:24.016Z,13.71
2024-01-05T21:39:50.845Z,13.80
2024-01-05T21:42:20.467Z,13.99
2024-01-05T21:44:47.133Z,14.04
2024-01-05T21:47:13.697Z,13.94
2024-01-05T21:49:40.615Z,13.09
2024-01-05T21:52:10.355Z,13.53
2024-01-05T21:54:38.164Z,14.11
2024-01-05T21:57:05.051Z,14.19
2024-01-05T21:59:33.805Z,14.21
2024-01-05T22:02:01.256Z,14.04
2024-01-05T22:04:27.932Z,13.92
2024-01-05T22:06:54.823Z,14.21
2024-01-05T22:09:21.750Z,14.05
2024-01-05T22:11:48.900Z,14.23
2024-01-05T22:14:15.833Z,14.20
2024-01-05T22:16:42.865Z,13.57
2024-01-05T22:19:10.056Z,13.52
2024-01-05T22:21:36.929Z,14.15
2024-01-05T22:24:03.697Z,13.68
2024-01-05T22:26:34.421Z,14.09
2024-01-05T22:29:01.447Z,13.51
2024-01-05T22:31:28.105Z,13.97
2024-01-05T22:33:54.838Z,13.77
2024-01-05T22:36:21.480Z,14.05
2024-01-05T22:38:48.069Z,14.30
2024-01-05T22:41:14.768Z,14.20
2024-01-05T22:43:41.494Z,14.04
2024-01-05T22:46:11.212Z,13.99
2024-01-05T22:48:38.161Z,13.93
2024-01-05T22:51:05.744Z,14.25
2024-01-05T22:53:32.449Z,14.40
2024-01-05T22:55:58.937Z,14.34
2024-01-05T22:58:25.569Z,13.86
2024-01-05T23:00:53.702Z,14.15
2024-01-05T23:03:20.708Z,14.17
2024-01-05T23:05:47.950Z,14.40
2024-01-05T23:08:14.673Z,14.10
2024-01-05T23:10:41.454Z,14.26
2024-01-05T23:13:09.629Z,14.38
2024-01-05T23:15:36.418Z,14.24
2024-01-05T23:18:03.289Z,13.67
2024-01-05T23:20:31.577Z,14.15
2024-01-05T23:22:58.274Z,14.30
2024-01-05T23:25:24.853Z,14.25
2024-01-05T23:27:51.846Z,13.75
2024-01-05T23:30:18.613Z,14.05
2024-01-05T23:32:45.382Z,14.37
2024-01-05T23:35:12.337Z,14.43
2024-01-05T23:37:38.948Z,14.07
2024-01-05T23:40:06.216Z,14.29
2024-01-05T23:42:33.072Z,14.23
2024-01-05T23:44:59.767Z,13.38
2024-01-05T23:47:27.134Z,13.59
2024-01-05T23:49:55.787Z,14.05
2024-01-05T23:52:22.681Z,14.36
2024-01-05T23:54:49.321Z,14.46
2024-01-05T23:57:15.982Z,14.49
2024-01-05T23:59:42.623Z,14.51
